sensor_id;sensor_type;location;lat;lon;timestamp;pressure;altitude;pressure_sealevel;temperature;humidity
51239;BME280;38154;47.548;18.828;2023-04-21T00:00:38;98724.94;;;11.32;76.46
51239;BME280;38154;47.548;18.828;2023-04-21T00:03:04;98723.19;;;11.39;75.28
51239;BME280;38154;47.548;18.828;2023-04-21T00:05:30;98716.22;;;11.47;73.98
51239;BME280;38154;47.548;18.828;2023-04-21T00:07:57;98715.31;;;11.54;74.47
51239;BME280;38154;47.548;18.828;2023-04-21T00:10:23;98714.47;;;11.49;73.51
51239;BME280;38154;47.548;18.828;2023-04-21T00:12:48;98715.34;;;11.48;72.93
51239;BME280;38154;47.548;18.828;2023-04-21T00:15:14;98714.50;;;11.41;73.04
51239;BME280;38154;47.548;18.828;2023-04-21T00:17:39;98704.94;;;11.34;74.09
51239;BME280;38154;47.548;18.828;2023-04-21T00:20:05;98701.47;;;11.30;74.54
51239;BME280;38154;47.548;18.828;2023-04-21T00:22:31;98704.97;;;11.26;72.81
51239;BME280;38154;47.548;18.828;2023-04-21T00:24:57;98699.75;;;11.23;73.49
51239;BME280;38154;47.548;18.828;2023-04-21T00:27:23;98701.50;;;11.13;74.13
51239;BME280;38154;47.548;18.828;2023-04-21T00:29:48;98698.03;;;11.11;74.13
51239;BME280;38154;47.548;18.828;2023-04-21T00:32:14;98697.13;;;11.22;73.41
51239;BME280;38154;47.548;18.828;2023-04-21T00:34:40;98693.69;;;11.17;73.73
51239;BME280;38154;47.548;18.828;2023-04-21T00:37:06;98697.16;;;11.12;71.42
51239;BME280;38154;47.548;18.828;2023-04-21T00:39:32;98691.94;;;11.16;71.11
51239;BME280;38154;47.548;18.828;2023-04-21T00:41:57;98687.59;;;11.11;70.82
51239;BME280;38154;47.548;18.828;2023-04-21T00:44:23;98692.81;;;11.16;71.86
51239;BME280;38154;47.548;18.828;2023-04-21T00:46:49;98691.94;;;11.14;70.87
51239;BME280;38154;47.548;18.828;2023-04-21T00:49:14;98699.75;;;11.19;69.54
51239;BME280;38154;47.548;18.828;2023-04-21T00:51:40;98691.03;;;11.26;67.63
51239;BME280;38154;47.548;18.828;2023-04-21T00:54:06;98693.62;;;11.26;68.17
51239;BME280;38154;47.548;18.828;2023-04-21T00:56:33;98685.84;;;11.23;68.29
51239;BME280;38154;47.548;18.828;2023-04-21T00:58:59;98685.84;;;11.21;66.85
51239;BME280;38154;47.548;18.828;2023-04-21T01:01:25;98688.44;;;11.21;65.89
51239;BME280;38154;47.548;18.828;2023-04-21T01:03:56;98693.62;;;11.24;66.17
51239;BME280;38154;47.548;18.828;2023-04-21T01:06:22;98684.09;;;11.17;66.34
51239;BME280;38154;47.548;18.828;2023-04-21T01:08:47;98687.56;;;11.22;66.93
51239;BME280;38154;47.548;18.828;2023-04-21T01:11:13;98691.03;;;11.24;64.91
51239;BME280;38154;47.548;18.828;2023-04-21T01:13:39;98690.16;;;11.21;64.46
51239;BME280;38154;47.548;18.828;2023-04-21T01:16:05;98689.31;;;11.23;64.51
51239;BME280;38154;47.548;18.828;2023-04-21T01:18:32;98694.53;;;11.22;65.29
51239;BME280;38154;47.548;18.828;2023-04-21T01:20:58;98689.31;;;11.20;64.86
51239;BME280;38154;47.548;18.828;2023-04-21T01:23:24;98691.97;;;11.09;65.98
51239;BME280;38154;47.548;18.828;2023-04-21T01:25:50;98690.22;;;11.07;64.96
51239;BME280;38154;47.548;18.828;2023-04-21T01:28:20;98691.97;;;11.09;65.00
51239;BME280;38154;47.548;18.828;2023-04-21T01:30:46;98692.81;;;11.04;65.08
51239;BME280;38154;47.548;18.828;2023-04-21T01:33:11;98691.06;;;11.06;64.64
51239;BME280;38154;47.548;18.828;2023-04-21T01:35:37;98691.09;;;11.03;65.27
51239;BME280;38154;47.548;18.828;2023-04-21T01:38:03;98692.81;;;11.01;65.06
51239;BME280;38154;47.548;18.828;2023-04-21T01:40:28;98691.09;;;10.95;64.63
51239;BME280;38154;47.548;18.828;2023-04-21T01:42:54;98685.88;;;10.92;65.26
51239;BME280;38154;47.548;18.828;2023-04-21T01:45:20;98686.75;;;10.95;64.44
51239;BME280;38154;47.548;18.828;2023-04-21T01:47:45;98680.66;;;10.89;64.75
51239;BME280;38154;47.548;18.828;2023-04-21T01:50:11;98690.25;;;10.84;65.40
51239;BME280;38154;47.548;18.828;2023-04-21T01:52:37;98683.28;;;10.90;64.98
51239;BME280;38154;47.548;18.828;2023-04-21T01:55:02;98689.37;;;10.86;64.36
51239;BME280;38154;47.548;18.828;2023-04-21T01:57:28;98690.25;;;10.94;63.48
51239;BME280;38154;47.548;18.828;2023-04-21T01:59:54;98695.47;;;10.85;64.04
51239;BME280;38154;47.548;18.828;2023-04-21T02:02:20;98696.31;;;10.86;63.90
51239;BME280;38154;47.548;18.828;2023-04-21T02:04:45;98694.59;;;10.86;63.67
51239;BME280;38154;47.548;18.828;2023-04-21T02:07:11;98693.75;;;10.75;64.80
51239;BME280;38154;47.548;18.828;2023-04-21T02:09:37;98693.72;;;10.67;63.08
51239;BME280;38154;47.548;18.828;2023-04-21T02:12:02;98698.06;;;10.59;65.94
51239;BME280;38154;47.548;18.828;2023-04-21T02:14:28;98691.13;;;10.69;65.64
51239;BME280;38154;47.548;18.828;2023-04-21T02:16:54;98685.03;;;10.62;63.37
51239;BME280;38154;47.548;18.828;2023-04-21T02:19:20;98698.97;;;10.55;63.45
51239;BME280;38154;47.548;18.828;2023-04-21T02:21:46;98692.84;;;10.59;64.48
51239;BME280;38154;47.548;18.828;2023-04-21T02:24:11;98703.31;;;10.67;61.76
51239;BME280;38154;47.548;18.828;2023-04-21T02:26:37;98700.69;;;10.65;62.06
51239;BME280;38154;47.548;18.828;2023-04-21T02:29:03;98704.19;;;10.63;61.54
51239;BME280;38154;47.548;18.828;2023-04-21T02:31:28;98707.66;;;10.63;61.93
51239;BME280;38154;47.548;18.828;2023-04-21T02:33:54;98697.22;;;10.65;63.21
51239;BME280;38154;47.548;18.828;2023-04-21T02:36:20;98696.34;;;10.69;60.98
51239;BME280;38154;47.548;18.828;2023-04-21T02:38:46;98698.09;;;10.77;60.75
51239;BME280;38154;47.548;18.828;2023-04-21T02:41:11;98701.56;;;10.75;62.78
51239;BME280;38154;47.548;18.828;2023-04-21T02:43:37;98704.16;;;10.67;61.18
51239;BME280;38154;47.548;18.828;2023-04-21T02:46:06;98698.94;;;10.73;61.18
51239;BME280;38154;47.548;18.828;2023-04-21T02:48:32;98698.09;;;10.73;60.79
51239;BME280;38154;47.548;18.828;2023-04-21T02:50:58;98698.09;;;10.70;60.91
51239;BME280;38154;47.548;18.828;2023-04-21T02:53:24;98694.59;;;10.75;60.04
51239;BME280;38154;47.548;18.828;2023-04-21T02:55:49;98688.53;;;10.80;60.25
51239;BME280;38154;47.548;18.828;2023-04-21T02:58:15;98693.75;;;10.78;60.28
51239;BME280;38154;47.548;18.828;2023-04-21T03:00:41;98695.47;;;10.79;60.73
51239;BME280;38154;47.548;18.828;2023-04-21T03:03:06;98695.47;;;10.73;60.19
51239;BME280;38154;47.548;18.828;2023-04-21T03:05:32;98697.22;;;10.68;63.92
51239;BME280;38154;47.548;18.828;2023-04-21T03:07:58;98702.44;;;10.68;63.08
51239;BME280;38154;47.548;18.828;2023-04-21T03:10:24;98700.69;;;10.73;62.29
51239;BME280;38154;47.548;18.828;2023-04-21T03:12:49;98698.94;;;10.76;61.18
51239;BME280;38154;47.548;18.828;2023-04-21T03:15:15;98705.91;;;10.68;64.38
51239;BME280;38154;47.548;18.828;2023-04-21T03:17:41;98702.44;;;10.65;63.50
51239;BME280;38154;47.548;18.828;2023-04-21T03:20:07;98705.91;;;10.59;63.82
51239;BME280;38154;47.548;18.828;2023-04-21T03:22:37;98702.44;;;10.62;64.06
51239;BME280;38154;47.548;18.828;2023-04-21T03:25:03;98707.63;;;10.54;63.39
51239;BME280;38154;47.548;18.828;2023-04-21T03:27:29;98709.38;;;10.52;63.11
51239;BME280;38154;47.548;18.828;2023-04-21T03:29:55;98708.50;;;10.50;63.34
51239;BME280;38154;47.548;18.828;2023-04-21T03:32:20;98702.44;;;10.49;63.78
51239;BME280;38154;47.548;18.828;2023-04-21T03:34:46;98709.41;;;10.46;66.29
51239;BME280;38154;47.548;18.828;2023-04-21T03:37:12;98705.91;;;10.50;64.20
51239;BME280;38154;47.548;18.828;2023-04-21T03:39:37;98714.59;;;10.39;64.86
51239;BME280;38154;47.548;18.828;2023-04-21T03:42:03;98705.03;;;10.48;64.17
51239;BME280;38154;47.548;18.828;2023-04-21T03:44:29;98704.16;;;10.53;64.66
51239;BME280;38154;47.548;18.828;2023-04-21T03:46:55;98709.38;;;10.55;63.90
51239;BME280;38154;47.548;18.828;2023-04-21T03:49:22;98710.25;;;10.65;64.33
51239;BME280;38154;47.548;18.828;2023-04-21T03:51:47;98712.87;;;10.65;63.00
51239;BME280;38154;47.548;18.828;2023-04-21T03:54:13;98708.50;;;10.59;64.63
51239;BME280;38154;47.548;18.828;2023-04-21T03:56:39;98714.59;;;10.58;64.21
51239;BME280;38154;47.548;18.828;2023-04-21T03:59:04;98712.84;;;10.58;65.85
51239;BME280;38154;47.548;18.828;2023-04-21T04:01:30;98712.84;;;10.55;65.68
51239;BME280;38154;47.548;18.828;2023-04-21T04:03:56;98703.31;;;10.51;62.91
51239;BME280;38154;47.548;18.828;2023-04-21T04:06:22;98711.13;;;10.47;64.34
51239;BME280;38154;47.548;18.828;2023-04-21T04:08:47;98705.87;;;10.42;64.00
51239;BME280;38154;47.548;18.828;2023-04-21T04:11:13;98705.00;;;10.35;65.10
51239;BME280;38154;47.548;18.828;2023-04-21T04:13:39;98709.38;;;10.43;64.43
51239;BME280;38154;47.548;18.828;2023-04-21T04:16:04;98705.91;;;10.53;64.18
51239;BME280;38154;47.548;18.828;2023-04-21T04:18:30;98705.94;;;10.57;63.84
51239;BME280;38154;47.548;18.828;2023-04-21T04:20:56;98711.97;;;10.67;63.96
51239;BME280;38154;47.548;18.828;2023-04-21T04:23:21;98706.75;;;10.67;62.77
51239;BME280;38154;47.548;18.828;2023-04-21T04:25:47;98703.28;;;10.81;63.19
51239;BME280;38154;47.548;18.828;2023-04-21T04:28:13;98704.16;;;10.87;62.20
51239;BME280;38154;47.548;18.828;2023-04-21T04:30:40;98705.03;;;10.88;62.39
51239;BME280;38154;47.548;18.828;2023-04-21T04:33:05;98712.84;;;10.92;62.29
51239;BME280;38154;47.548;18.828;2023-04-21T04:35:31;98708.50;;;10.91;63.38
51239;BME280;38154;47.548;18.828;2023-04-21T04:37:57;98711.97;;;10.93;63.33
51239;BME280;38154;47.548;18.828;2023-04-21T04:40:23;98709.34;;;11.13;61.58
51239;BME280;38154;47.548;18.828;2023-04-21T04:42:49;98711.00;;;11.36;61.97
51239;BME280;38154;47.548;18.828;2023-04-21T04:45:15;98713.59;;;11.47;61.07
51239;BME280;38154;47.548;18.828;2023-04-21T04:47:42;98727.44;;;11.74;59.72
51239;BME280;38154;47.548;18.828;2023-04-21T04:50:08;98730.81;;;11.99;58.70
51239;BME280;38154;47.548;18.828;2023-04-21T04:52:36;98734.22;;;12.13;57.88
51239;BME280;38154;47.548;18.828;2023-04-21T04:55:01;98725.53;;;12.08;58.18
51239;BME280;38154;47.548;18.828;2023-04-21T04:57:27;98733.31;;;12.23;59.59
51239;BME280;38154;47.548;18.828;2023-04-21T04:59:55;98721.84;;;12.40;58.28
51239;BME280;38154;47.548;18.828;2023-04-21T05:02:21;98724.38;;;12.55;57.52
51239;BME280;38154;47.548;18.828;2023-04-21T05:04:48;98720.78;;;12.70;56.37
51239;BME280;38154;47.548;18.828;2023-04-21T05:07:14;98719.75;;;12.85;56.74
51239;BME280;38154;47.548;18.828;2023-04-21T05:09:40;98726.66;;;12.95;55.71
51239;BME280;38154;47.548;18.828;2023-04-21T05:12:05;98722.34;;;12.88;55.89
51239;BME280;38154;47.548;18.828;2023-04-21T05:14:31;98723.16;;;12.96;55.58
51239;BME280;38154;47.548;18.828;2023-04-21T05:16:57;98718.63;;;13.14;56.96
51239;BME280;38154;47.548;18.828;2023-04-21T05:19:22;98729.41;;;13.70;53.57
51239;BME280;38154;47.548;18.828;2023-04-21T05:21:48;98724.00;;;13.81;51.92
51239;BME280;38154;47.548;18.828;2023-04-21T05:24:14;98725.88;;;13.72;52.68
51239;BME280;38154;47.548;18.828;2023-04-21T05:26:39;98735.37;;;13.83;52.02
51239;BME280;38154;47.548;18.828;2023-04-21T05:29:05;98731.84;;;13.84;51.86
51239;BME280;38154;47.548;18.828;2023-04-21T05:31:31;98728.87;;;14.12;50.83
51239;BME280;38154;47.548;18.828;2023-04-21T05:33:57;98733.78;;;14.35;50.77
51239;BME280;38154;47.548;18.828;2023-04-21T05:36:24;98729.59;;;14.23;49.48
51239;BME280;38154;47.548;18.828;2023-04-21T05:38:50;98725.06;;;14.33;49.48
51239;BME280;38154;47.548;18.828;2023-04-21T05:41:16;98720.28;;;14.00;50.07
51239;BME280;38154;47.548;18.828;2023-04-21T05:43:42;98731.62;;;14.01;50.77
51239;BME280;38154;47.548;18.828;2023-04-21T05:46:08;98726.38;;;13.99;49.23
51239;BME280;38154;47.548;18.828;2023-04-21T05:48:35;98709.72;;;14.06;49.45
51239;BME280;38154;47.548;18.828;2023-04-21T05:51:34;98728.66;;;14.25;50.05
51239;BME280;38154;47.548;18.828;2023-04-21T05:53:53;98741.94;;;14.15;49.62
51239;BME280;38154;47.548;18.828;2023-04-21T05:56:18;98750.47;;;14.29;49.13
51239;BME280;38154;47.548;18.828;2023-04-21T05:58:44;98718.56;;;14.58;47.51
51239;BME280;38154;47.548;18.828;2023-04-21T06:01:10;98729.28;;;15.00;46.21
51239;BME280;38154;47.548;18.828;2023-04-21T06:03:37;98729.00;;;15.61;45.09
51239;BME280;38154;47.548;18.828;2023-04-21T06:06:03;98717.72;;;16.01;43.20
51239;BME280;38154;47.548;18.828;2023-04-21T06:08:30;98734.13;;;16.12;42.98
51239;BME280;38154;47.548;18.828;2023-04-21T06:10:56;98734.44;;;16.75;42.17
51239;BME280;38154;47.548;18.828;2023-04-21T06:13:21;98736.97;;;18.40;38.86
51239;BME280;38154;47.548;18.828;2023-04-21T06:15:47;98738.03;;;18.34;37.98
51239;BME280;38154;47.548;18.828;2023-04-21T06:18:12;98751.31;;;19.41;35.99
51239;BME280;38154;47.548;18.828;2023-04-21T06:20:38;98738.88;;;19.68;34.98
51239;BME280;38154;47.548;18.828;2023-04-21T06:23:05;98749.47;;;20.61;34.05
51239;BME280;38154;47.548;18.828;2023-04-21T06:25:31;98741.13;;;20.72;32.94
51239;BME280;38154;47.548;18.828;2023-04-21T06:27:56;98750.72;;;20.74;32.18
51239;BME280;38154;47.548;18.828;2023-04-21T06:30:22;98753.94;;;22.25;30.71
51239;BME280;38154;47.548;18.828;2023-04-21T06:32:48;98749.50;;;22.07;31.05
51239;BME280;38154;47.548;18.828;2023-04-21T06:35:13;98758.94;;;22.88;29.23
51239;BME280;38154;47.548;18.828;2023-04-21T06:37:42;98759.56;;;22.57;29.63
51239;BME280;38154;47.548;18.828;2023-04-21T06:40:08;98760.56;;;22.35;29.68
51239;BME280;38154;47.548;18.828;2023-04-21T06:42:34;98744.44;;;21.81;30.26
51239;BME280;38154;47.548;18.828;2023-04-21T06:44:59;98752.69;;;22.89;29.38
51239;BME280;38154;47.548;18.828;2023-04-21T06:47:25;98758.94;;;23.06;28.52
51239;BME280;38154;47.548;18.828;2023-04-21T06:49:51;98764.19;;;22.90;29.13
51239;BME280;38154;47.548;18.828;2023-04-21T06:52:17;98753.34;;;23.82;29.04
51239;BME280;38154;47.548;18.828;2023-04-21T06:54:42;98764.31;;;25.05;26.50
51239;BME280;38154;47.548;18.828;2023-04-21T06:57:08;98763.19;;;26.41;24.85
51239;BME280;38154;47.548;18.828;2023-04-21T06:59:34;98761.44;;;27.09;23.96
51239;BME280;38154;47.548;18.828;2023-04-21T07:01:59;98767.25;;;26.47;24.35
51239;BME280;38154;47.548;18.828;2023-04-21T07:04:25;98765.38;;;26.06;24.76
51239;BME280;38154;47.548;18.828;2023-04-21T07:06:56;98756.28;;;24.58;26.05
51239;BME280;38154;47.548;18.828;2023-04-21T07:09:22;98753.94;;;24.68;25.88
51239;BME280;38154;47.548;18.828;2023-04-21T07:11:47;98753.88;;;25.46;25.60
51239;BME280;38154;47.548;18.828;2023-04-21T07:14:13;98756.69;;;25.73;24.69
51239;BME280;38154;47.548;18.828;2023-04-21T07:16:39;98757.75;;;25.71;24.31
51239;BME280;38154;47.548;18.828;2023-04-21T07:19:04;98759.16;;;25.02;25.51
51239;BME280;38154;47.548;18.828;2023-04-21T07:21:30;98758.22;;;26.21;23.56
51239;BME280;38154;47.548;18.828;2023-04-21T07:23:56;98764.94;;;26.70;23.65
51239;BME280;38154;47.548;18.828;2023-04-21T07:26:23;98766.81;;;26.82;23.85
51239;BME280;38154;47.548;18.828;2023-04-21T07:28:49;98764.50;;;26.63;23.09
51239;BME280;38154;47.548;18.828;2023-04-21T07:31:16;98779.81;;;26.88;23.26
51239;BME280;38154;47.548;18.828;2023-04-21T07:33:42;98766.50;;;25.87;24.26
51239;BME280;38154;47.548;18.828;2023-04-21T07:36:08;98751.03;;;25.49;24.59
51239;BME280;38154;47.548;18.828;2023-04-21T07:38:33;98758.63;;;26.00;24.38
51239;BME280;38154;47.548;18.828;2023-04-21T07:40:59;98770.88;;;26.75;24.40
51239;BME280;38154;47.548;18.828;2023-04-21T07:43:25;98764.25;;;27.73;23.44
51239;BME280;38154;47.548;18.828;2023-04-21T07:45:51;98765.53;;;27.42;22.10
51239;BME280;38154;47.548;18.828;2023-04-21T07:48:17;98791.78;;;26.54;23.08
51239;BME280;38154;47.548;18.828;2023-04-21T07:50:43;98758.59;;;25.71;23.77
51239;BME280;38154;47.548;18.828;2023-04-21T07:53:09;98761.75;;;25.92;24.38
51239;BME280;38154;47.548;18.828;2023-04-21T07:55:34;98776.31;;;26.44;23.60
51239;BME280;38154;47.548;18.828;2023-04-21T07:58:03;98771.81;;;27.01;23.84
51239;BME280;38154;47.548;18.828;2023-04-21T08:00:28;98769.47;;;25.68;24.33
51239;BME280;38154;47.548;18.828;2023-04-21T08:02:54;98769.56;;;25.81;25.74
51239;BME280;38154;47.548;18.828;2023-04-21T08:05:20;98759.34;;;25.59;24.42
51239;BME280;38154;47.548;18.828;2023-04-21T08:07:45;98766.94;;;26.10;24.69
51239;BME280;38154;47.548;18.828;2023-04-21T08:10:11;98772.16;;;26.26;23.76
51239;BME280;38154;47.548;18.828;2023-04-21T08:12:37;98760.88;;;25.63;24.13
51239;BME280;38154;47.548;18.828;2023-04-21T08:15:02;98769.31;;;27.25;23.38
51239;BME280;38154;47.548;18.828;2023-04-21T08:17:31;98791.19;;;27.98;22.32
51239;BME280;38154;47.548;18.828;2023-04-21T08:19:57;98782.28;;;27.58;21.93
51239;BME280;38154;47.548;18.828;2023-04-21T08:22:23;98779.69;;;27.70;21.82
51239;BME280;38154;47.548;18.828;2023-04-21T08:24:48;98774.34;;;28.21;21.60
51239;BME280;38154;47.548;18.828;2023-04-21T08:27:14;98780.44;;;28.97;21.03
51239;BME280;38154;47.548;18.828;2023-04-21T08:29:40;98774.13;;;28.74;20.76
51239;BME280;38154;47.548;18.828;2023-04-21T08:32:05;98774.31;;;28.34;21.14
51239;BME280;38154;47.548;18.828;2023-04-21T08:34:31;98765.31;;;28.72;20.99
51239;BME280;38154;47.548;18.828;2023-04-21T08:36:57;98771.28;;;29.13;21.32
51239;BME280;38154;47.548;18.828;2023-04-21T08:39:22;98761.81;;;28.59;21.14
51239;BME280;38154;47.548;18.828;2023-04-21T08:41:48;98769.81;;;28.96;21.38
51239;BME280;38154;47.548;18.828;2023-04-21T08:44:15;98779.19;;;28.16;22.55
51239;BME280;38154;47.548;18.828;2023-04-21T08:46:42;98771.03;;;28.18;21.59
51239;BME280;38154;47.548;18.828;2023-04-21T08:49:09;98764.81;;;27.26;22.06
51239;BME280;38154;47.548;18.828;2023-04-21T08:51:34;98767.94;;;26.92;22.87
51239;BME280;38154;47.548;18.828;2023-04-21T08:54:00;98771.59;;;27.04;23.51
51239;BME280;38154;47.548;18.828;2023-04-21T08:56:26;98767.38;;;26.87;23.28
51239;BME280;38154;47.548;18.828;2023-04-21T08:58:52;98771.53;;;27.71;23.44
51239;BME280;38154;47.548;18.828;2023-04-21T09:01:18;98768.78;;;27.86;22.01
51239;BME280;38154;47.548;18.828;2023-04-21T09:03:44;98757.91;;;27.36;22.80
51239;BME280;38154;47.548;18.828;2023-04-21T09:06:10;98764.88;;;27.51;22.63
51239;BME280;38154;47.548;18.828;2023-04-21T09:08:37;98762.66;;;27.84;23.79
51239;BME280;38154;47.548;18.828;2023-04-21T09:11:04;98756.00;;;28.65;21.60
51239;BME280;38154;47.548;18.828;2023-04-21T09:15:56;98757.97;;;28.37;21.16
51239;BME280;38154;47.548;18.828;2023-04-21T09:18:22;98758.44;;;29.40;20.76
51239;BME280;38154;47.548;18.828;2023-04-21T09:20:49;98760.63;;;30.05;20.16
51239;BME280;38154;47.548;18.828;2023-04-21T09:23:15;98749.94;;;29.69;20.17
51239;BME280;38154;47.548;18.828;2023-04-21T09:25:41;98764.50;;;29.67;21.15
51239;BME280;38154;47.548;18.828;2023-04-21T09:28:08;98754.00;;;27.93;22.19
51239;BME280;38154;47.548;18.828;2023-04-21T09:30:34;98755.16;;;27.89;22.25
51239;BME280;38154;47.548;18.828;2023-04-21T09:33:00;98755.88;;;28.29;21.05
51239;BME280;38154;47.548;18.828;2023-04-21T09:35:26;98751.50;;;27.90;21.33
51239;BME280;38154;47.548;18.828;2023-04-21T09:37:52;98745.28;;;28.15;21.16
51239;BME280;38154;47.548;18.828;2023-04-21T09:40:18;98740.78;;;27.90;22.03
51239;BME280;38154;47.548;18.828;2023-04-21T09:42:44;98733.41;;;27.81;21.89
51239;BME280;38154;47.548;18.828;2023-04-21T09:45:10;98743.37;;;28.54;22.08
51239;BME280;38154;47.548;18.828;2023-04-21T09:47:38;98738.31;;;28.12;20.99
51239;BME280;38154;47.548;18.828;2023-04-21T09:50:05;98746.56;;;27.45;21.74
51239;BME280;38154;47.548;18.828;2023-04-21T09:52:31;98747.19;;;27.36;22.71
51239;BME280;38154;47.548;18.828;2023-04-21T09:54:59;98734.13;;;27.04;22.22
51239;BME280;38154;47.548;18.828;2023-04-21T09:57:29;98733.09;;;26.79;23.00
51239;BME280;38154;47.548;18.828;2023-04-21T09:59:59;98729.84;;;27.80;21.97
51239;BME280;38154;47.548;18.828;2023-04-21T10:02:25;98733.63;;;26.57;22.76
51239;BME280;38154;47.548;18.828;2023-04-21T10:04:54;98724.84;;;24.95;24.45
51239;BME280;38154;47.548;18.828;2023-04-21T10:07:20;98726.09;;;22.89;27.97
51239;BME280;38154;47.548;18.828;2023-04-21T10:09:53;98725.06;;;22.74;27.53
51239;BME280;38154;47.548;18.828;2023-04-21T10:12:19;98731.56;;;24.87;27.31
51239;BME280;38154;47.548;18.828;2023-04-21T10:14:45;98726.09;;;25.79;24.80
51239;BME280;38154;47.548;18.828;2023-04-21T10:17:14;98720.94;;;27.41;22.67
51239;BME280;38154;47.548;18.828;2023-04-21T10:19:47;98720.44;;;26.54;22.91
51239;BME280;38154;47.548;18.828;2023-04-21T10:22:13;98725.84;;;25.39;24.14
51239;BME280;38154;47.548;18.828;2023-04-21T10:24:39;98718.72;;;25.83;23.72
51239;BME280;38154;47.548;18.828;2023-04-21T10:27:09;98718.69;;;26.26;26.39
51239;BME280;38154;47.548;18.828;2023-04-21T10:29:36;98717.78;;;25.25;25.52
51239;BME280;38154;47.548;18.828;2023-04-21T10:32:02;98713.25;;;25.41;24.43
51239;BME280;38154;47.548;18.828;2023-04-21T10:34:37;98717.62;;;26.43;24.21
51239;BME280;38154;47.548;18.828;2023-04-21T10:39:30;98703.00;;;24.89;25.58
51239;BME280;38154;47.548;18.828;2023-04-21T10:42:17;98696.41;;;23.33;29.12
51239;BME280;38154;47.548;18.828;2023-04-21T10:47:25;98692.97;;;25.82;26.61
51239;BME280;38154;47.548;18.828;2023-04-21T10:49:52;98692.41;;;27.01;25.01
51239;BME280;38154;47.548;18.828;2023-04-21T10:52:18;98682.41;;;25.21;25.92
51239;BME280;38154;47.548;18.828;2023-04-21T10:57:14;98684.25;;;23.45;27.73
51239;BME280;38154;47.548;18.828;2023-04-21T10:59:40;98690.19;;;23.84;26.81
51239;BME280;38154;47.548;18.828;2023-04-21T11:02:07;98677.91;;;22.95;28.25
51239;BME280;38154;47.548;18.828;2023-04-21T11:04:33;98680.09;;;22.52;28.07
51239;BME280;38154;47.548;18.828;2023-04-21T11:07:12;98673.31;;;21.29;30.11
51239;BME280;38154;47.548;18.828;2023-04-21T11:09:39;98676.03;;;21.28;30.35
51239;BME280;38154;47.548;18.828;2023-04-21T11:12:05;98675.63;;;22.34;28.27
51239;BME280;38154;47.548;18.828;2023-04-21T11:14:32;98668.16;;;22.42;28.43
51239;BME280;38154;47.548;18.828;2023-04-21T11:16:58;98665.16;;;21.34;30.38
51239;BME280;38154;47.548;18.828;2023-04-21T11:19:24;98668.53;;;22.15;29.90
51239;BME280;38154;47.548;18.828;2023-04-21T11:21:51;98655.88;;;22.76;27.95
51239;BME280;38154;47.548;18.828;2023-04-21T11:24:18;98657.91;;;22.88;27.93
51239;BME280;38154;47.548;18.828;2023-04-21T11:26:44;98664.22;;;22.32;28.93
51239;BME280;38154;47.548;18.828;2023-04-21T11:29:10;98662.88;;;22.04;30.49
51239;BME280;38154;47.548;18.828;2023-04-21T11:31:40;98665.66;;;21.63;31.06
51239;BME280;38154;47.548;18.828;2023-04-21T11:34:06;98659.59;;;21.40;30.42
51239;BME280;38154;47.548;18.828;2023-04-21T11:36:35;98661.31;;;20.57;33.04
51239;BME280;38154;47.548;18.828;2023-04-21T11:39:11;98649.16;;;20.31;31.40
51239;BME280;38154;47.548;18.828;2023-04-21T11:41:38;98658.44;;;20.19;31.76
51239;BME280;38154;47.548;18.828;2023-04-21T11:44:04;98652.19;;;19.98;32.21
51239;BME280;38154;47.548;18.828;2023-04-21T11:46:30;98649.94;;;19.89;33.70
51239;BME280;38154;47.548;18.828;2023-04-21T11:48:58;98650.72;;;19.44;32.97
51239;BME280;38154;47.548;18.828;2023-04-21T11:51:24;98654.28;;;19.18;32.85
51239;BME280;38154;47.548;18.828;2023-04-21T11:53:51;98651.72;;;19.40;33.93
51239;BME280;38154;47.548;18.828;2023-04-21T11:56:17;98649.25;;;19.35;33.26
51239;BME280;38154;47.548;18.828;2023-04-21T11:58:44;98646.16;;;19.71;32.77
51239;BME280;38154;47.548;18.828;2023-04-21T12:01:10;98642.41;;;20.00;32.26
51239;BME280;38154;47.548;18.828;2023-04-21T12:03:36;98642.56;;;20.42;32.35
51239;BME280;38154;47.548;18.828;2023-04-21T12:06:02;98648.31;;;20.29;35.77
51239;BME280;38154;47.548;18.828;2023-04-21T12:08:28;98649.00;;;20.34;32.62
51239;BME280;38154;47.548;18.828;2023-04-21T12:10:54;98641.84;;;19.92;32.51
51239;BME280;38154;47.548;18.828;2023-04-21T12:13:26;98650.44;;;19.75;33.34
51239;BME280;38154;47.548;18.828;2023-04-21T12:15:52;98645.28;;;19.71;33.30
51239;BME280;38154;47.548;18.828;2023-04-21T12:18:18;98641.63;;;19.51;32.48
51239;BME280;38154;47.548;18.828;2023-04-21T12:20:48;98641.09;;;19.65;34.20
51239;BME280;38154;47.548;18.828;2023-04-21T12:23:13;98638.72;;;19.57;33.60
51239;BME280;38154;47.548;18.828;2023-04-21T12:25:39;98638.03;;;19.52;33.25
51239;BME280;38154;47.548;18.828;2023-04-21T12:28:05;98635.28;;;19.55;32.92
51239;BME280;38154;47.548;18.828;2023-04-21T12:30:32;98631.56;;;19.61;34.04
51239;BME280;38154;47.548;18.828;2023-04-21T12:32:58;98635.00;;;19.63;32.96
51239;BME280;38154;47.548;18.828;2023-04-21T12:35:24;98634.53;;;19.52;33.92
51239;BME280;38154;47.548;18.828;2023-04-21T12:37:50;98634.94;;;19.64;35.10
51239;BME280;38154;47.548;18.828;2023-04-21T12:40:16;98630.00;;;19.55;32.70
51239;BME280;38154;47.548;18.828;2023-04-21T12:42:41;98632.59;;;19.57;33.35
51239;BME280;38154;47.548;18.828;2023-04-21T12:45:07;98626.78;;;19.47;33.22
51239;BME280;38154;47.548;18.828;2023-04-21T12:47:36;98630.00;;;19.79;32.87
51239;BME280;38154;47.548;18.828;2023-04-21T12:50:02;98628.19;;;20.25;33.20
51239;BME280;38154;47.548;18.828;2023-04-21T12:52:28;98629.00;;;20.71;31.73
51239;BME280;38154;47.548;18.828;2023-04-21T12:54:53;98624.00;;;21.25;31.09